sensor_id;sensor_type;location;lat;lon;timestamp;P1;durP1;ratioP1;P2;durP2;ratioP2
76807;SDS011;65758;45.458;11.062;2023-09-30T00:01:08;7.90;;;4.30;;
76807;SDS011;65758;45.458;11.062;2023-09-30T00:03:37;8.10;;;4.40;;
76807;SDS011;65758;45.458;11.062;2023-09-30T00:06:04;7.20;;;4.50;;
76807;SDS011;65758;45.458;11.062;2023-09-30T00:08:31;5.00;;;4.30;;
76807;SDS011;65758;45.458;11.062;2023-09-30T00:10:58;6.20;;;4.70;;
76807;SDS011;65758;45.458;11.062;2023-09-30T00:13:26;4.70;;;4.30;;
76807;SDS011;65758;45.458;11.062;2023-09-30T00:15:53;10.10;;;5.00;;
76807;SDS011;65758;45.458;11.062;2023-09-30T00:18:20;7.40;;;4.20;;
76807;SDS011;65758;45.458;11.062;2023-09-30T00:20:47;6.60;;;4.60;;
76807;SDS011;65758;45.458;11.062;2023-09-30T00:23:14;5.00;;;4.00;;
76807;SDS011;65758;45.458;11.062;2023-09-30T00:25:41;5.30;;;4.10;;
76807;SDS011;65758;45.458;11.062;2023-09-30T00:28:08;6.50;;;4.60;;
76807;SDS011;65758;45.458;11.062;2023-09-30T00:30:35;5.80;;;4.60;;
76807;SDS011;65758;45.458;11.062;2023-09-30T00:33:02;6.30;;;4.70;;
76807;SDS011;65758;45.458;11.062;2023-09-30T00:35:31;5.00;;;4.30;;
76807;SDS011;65758;45.458;11.062;2023-09-30T00:37:59;7.60;;;4.10;;
76807;SDS011;65758;45.458;11.062;2023-09-30T00:40:25;6.60;;;4.20;;
76807;SDS011;65758;45.458;11.062;2023-09-30T00:42:52;7.10;;;5.00;;
76807;SDS011;65758;45.458;11.062;2023-09-30T00:45:19;5.40;;;4.00;;
76807;SDS011;65758;45.458;11.062;2023-09-30T00:47:46;5.40;;;4.10;;
76807;SDS011;65758;45.458;11.062;2023-09-30T00:50:14;7.10;;;4.90;;
76807;SDS011;65758;45.458;11.062;2023-09-30T00:52:41;5.80;;;4.70;;
76807;SDS011;65758;45.458;11.062;2023-09-30T00:55:09;5.80;;;4.00;;
76807;SDS011;65758;45.458;11.062;2023-09-30T00:57:37;5.00;;;4.00;;
76807;SDS011;65758;45.458;11.062;2023-09-30T01:00:06;6.60;;;3.80;;
76807;SDS011;65758;45.458;11.062;2023-09-30T01:02:34;5.40;;;3.60;;
76807;SDS011;65758;45.458;11.062;2023-09-30T01:05:01;5.90;;;4.40;;
76807;SDS011;65758;45.458;11.062;2023-09-30T01:07:29;9.10;;;5.10;;
76807;SDS011;65758;45.458;11.062;2023-09-30T01:09:55;6.50;;;4.70;;
76807;SDS011;65758;45.458;11.062;2023-09-30T01:12:23;11.50;;;4.90;;
76807;SDS011;65758;45.458;11.062;2023-09-30T01:14:49;4.40;;;4.00;;
76807;SDS011;65758;45.458;11.062;2023-09-30T01:17:16;7.50;;;4.70;;
76807;SDS011;65758;45.458;11.062;2023-09-30T01:19:43;5.80;;;4.30;;
76807;SDS011;65758;45.458;11.062;2023-09-30T01:22:10;5.20;;;3.80;;
76807;SDS011;65758;45.458;11.062;2023-09-30T01:24:41;4.70;;;4.00;;
76807;SDS011;65758;45.458;11.062;2023-09-30T01:27:09;6.50;;;4.20;;
76807;SDS011;65758;45.458;11.062;2023-09-30T01:29:36;6.10;;;3.80;;
76807;SDS011;65758;45.458;11.062;2023-09-30T01:32:05;5.20;;;3.80;;
76807;SDS011;65758;45.458;11.062;2023-09-30T01:34:36;5.60;;;4.20;;
76807;SDS011;65758;45.458;11.062;2023-09-30T01:37:04;5.70;;;4.10;;
76807;SDS011;65758;45.458;11.062;2023-09-30T01:39:31;4.80;;;3.70;;
76807;SDS011;65758;45.458;11.062;2023-09-30T01:41:59;4.10;;;3.70;;
76807;SDS011;65758;45.458;11.062;2023-09-30T01:44:26;5.20;;;4.10;;
76807;SDS011;65758;45.458;11.062;2023-09-30T01:46:53;6.00;;;3.80;;
76807;SDS011;65758;45.458;11.062;2023-09-30T01:49:19;6.30;;;3.90;;
76807;SDS011;65758;45.458;11.062;2023-09-30T01:51:47;6.00;;;4.20;;
76807;SDS011;65758;45.458;11.062;2023-09-30T01:54:13;6.50;;;3.90;;
76807;SDS011;65758;45.458;11.062;2023-09-30T01:56:40;6.50;;;3.80;;
76807;SDS011;65758;45.458;11.062;2023-09-30T01:59:08;4.60;;;4.20;;
76807;SDS011;65758;45.458;11.062;2023-09-30T02:01:35;4.40;;;3.80;;
76807;SDS011;65758;45.458;11.062;2023-09-30T02:04:02;5.50;;;3.90;;
76807;SDS011;65758;45.458;11.062;2023-09-30T02:06:29;6.50;;;4.50;;
76807;SDS011;65758;45.458;11.062;2023-09-30T02:08:56;6.10;;;3.80;;
76807;SDS011;65758;45.458;11.062;2023-09-30T02:11:23;5.80;;;3.90;;
76807;SDS011;65758;45.458;11.062;2023-09-30T02:13:49;4.70;;;4.20;;
76807;SDS011;65758;45.458;11.062;2023-09-30T02:16:16;5.80;;;3.50;;
76807;SDS011;65758;45.458;11.062;2023-09-30T02:18:43;5.40;;;3.50;;
76807;SDS011;65758;45.458;11.062;2023-09-30T02:21:17;4.80;;;3.50;;
76807;SDS011;65758;45.458;11.062;2023-09-30T02:23:44;8.30;;;3.40;;
76807;SDS011;65758;45.458;11.062;2023-09-30T02:26:15;4.40;;;2.80;;
76807;SDS011;65758;45.458;11.062;2023-09-30T02:28:42;7.30;;;3.90;;
76807;SDS011;65758;45.458;11.062;2023-09-30T02:31:11;6.90;;;4.40;;
76807;SDS011;65758;45.458;11.062;2023-09-30T02:33:38;5.20;;;3.60;;
76807;SDS011;65758;45.458;11.062;2023-09-30T02:36:09;6.70;;;3.90;;
76807;SDS011;65758;45.458;11.062;2023-09-30T02:38:36;4.50;;;3.70;;
76807;SDS011;65758;45.458;11.062;2023-09-30T02:41:07;5.30;;;3.90;;
76807;SDS011;65758;45.458;11.062;2023-09-30T02:43:34;4.90;;;4.30;;
76807;SDS011;65758;45.458;11.062;2023-09-30T02:46:00;6.00;;;4.30;;
76807;SDS011;65758;45.458;11.062;2023-09-30T02:48:28;6.40;;;4.60;;
76807;SDS011;65758;45.458;11.062;2023-09-30T02:50:55;5.50;;;4.30;;
76807;SDS011;65758;45.458;11.062;2023-09-30T02:53:22;4.30;;;3.90;;
76807;SDS011;65758;45.458;11.062;2023-09-30T02:55:49;5.50;;;3.50;;
76807;SDS011;65758;45.458;11.062;2023-09-30T02:58:18;8.30;;;4.10;;
76807;SDS011;65758;45.458;11.062;2023-09-30T03:00:48;5.20;;;4.00;;
76807;SDS011;65758;45.458;11.062;2023-09-30T03:03:16;7.30;;;3.80;;
76807;SDS011;65758;45.458;11.062;2023-09-30T03:05:43;6.50;;;4.20;;
76807;SDS011;65758;45.458;11.062;2023-09-30T03:08:12;6.60;;;3.90;;
76807;SDS011;65758;45.458;11.062;2023-09-30T03:10:38;5.40;;;4.00;;
76807;SDS011;65758;45.458;11.062;2023-09-30T03:13:07;5.70;;;4.10;;
76807;SDS011;65758;45.458;11.062;2023-09-30T03:15:35;5.50;;;4.30;;
76807;SDS011;65758;45.458;11.062;2023-09-30T03:18:02;4.40;;;3.70;;
76807;SDS011;65758;45.458;11.062;2023-09-30T03:20:30;5.60;;;3.50;;
76807;SDS011;65758;45.458;11.062;2023-09-30T03:22:57;4.70;;;3.60;;
76807;SDS011;65758;45.458;11.062;2023-09-30T03:25:24;6.10;;;3.70;;
76807;SDS011;65758;45.458;11.062;2023-09-30T03:27:51;6.70;;;3.30;;
76807;SDS011;65758;45.458;11.062;2023-09-30T03:30:18;5.30;;;3.30;;
76807;SDS011;65758;45.458;11.062;2023-09-30T03:32:47;5.00;;;3.80;;
76807;SDS011;65758;45.458;11.062;2023-09-30T03:35:14;6.30;;;3.80;;
76807;SDS011;65758;45.458;11.062;2023-09-30T03:37:47;7.50;;;3.40;;
76807;SDS011;65758;45.458;11.062;2023-09-30T03:40:14;5.40;;;3.70;;
76807;SDS011;65758;45.458;11.062;2023-09-30T03:42:47;6.70;;;4.10;;
76807;SDS011;65758;45.458;11.062;2023-09-30T03:45:17;4.70;;;3.10;;
76807;SDS011;65758;45.458;11.062;2023-09-30T03:47:45;6.10;;;3.90;;
76807;SDS011;65758;45.458;11.062;2023-09-30T03:50:15;5.30;;;3.90;;
76807;SDS011;65758;45.458;11.062;2023-09-30T03:52:43;5.60;;;3.40;;
76807;SDS011;65758;45.458;11.062;2023-09-30T03:55:14;4.70;;;3.30;;
76807;SDS011;65758;45.458;11.062;2023-09-30T03:57:48;5.10;;;3.60;;
76807;SDS011;65758;45.458;11.062;2023-09-30T04:00:16;7.00;;;3.80;;
76807;SDS011;65758;45.458;11.062;2023-09-30T04:02:51;4.50;;;3.40;;
76807;SDS011;65758;45.458;11.062;2023-09-30T04:05:25;6.10;;;3.70;;
76807;SDS011;65758;45.458;11.062;2023-09-30T04:07:55;4.90;;;3.50;;
76807;SDS011;65758;45.458;11.062;2023-09-30T04:10:23;6.60;;;3.50;;
76807;SDS011;65758;45.458;11.062;2023-09-30T04:12:50;6.50;;;3.50;;
76807;SDS011;65758;45.458;11.062;2023-09-30T04:15:18;6.00;;;3.00;;
76807;SDS011;65758;45.458;11.062;2023-09-30T04:17:45;4.20;;;3.40;;
76807;SDS011;65758;45.458;11.062;2023-09-30T04:20:12;5.80;;;3.20;;
76807;SDS011;65758;45.458;11.062;2023-09-30T04:22:50;5.70;;;3.40;;
76807;SDS011;65758;45.458;11.062;2023-09-30T04:25:18;5.50;;;3.00;;
76807;SDS011;65758;45.458;11.062;2023-09-30T04:27:46;6.80;;;3.70;;
76807;SDS011;65758;45.458;11.062;2023-09-30T04:30:16;5.00;;;3.40;;
76807;SDS011;65758;45.458;11.062;2023-09-30T04:32:44;4.90;;;3.30;;
76807;SDS011;65758;45.458;11.062;2023-09-30T04:35:11;4.40;;;3.50;;
76807;SDS011;65758;45.458;11.062;2023-09-30T04:37:38;4.60;;;3.50;;
76807;SDS011;65758;45.458;11.062;2023-09-30T04:40:06;4.90;;;3.60;;
76807;SDS011;65758;45.458;11.062;2023-09-30T04:42:47;4.40;;;3.70;;
76807;SDS011;65758;45.458;11.062;2023-09-30T04:45:15;4.00;;;3.40;;
76807;SDS011;65758;45.458;11.062;2023-09-30T04:47:54;4.60;;;2.90;;
76807;SDS011;65758;45.458;11.062;2023-09-30T04:50:24;4.80;;;3.70;;
76807;SDS011;65758;45.458;11.062;2023-09-30T04:52:51;5.00;;;3.40;;
76807;SDS011;65758;45.458;11.062;2023-09-30T04:55:18;4.40;;;3.90;;
76807;SDS011;65758;45.458;11.062;2023-09-30T04:57:46;5.50;;;3.60;;
76807;SDS011;65758;45.458;11.062;2023-09-30T05:00:15;6.50;;;3.10;;
76807;SDS011;65758;45.458;11.062;2023-09-30T05:02:44;9.10;;;3.90;;
76807;SDS011;65758;45.458;11.062;2023-09-30T05:05:13;8.10;;;3.80;;
76807;SDS011;65758;45.458;11.062;2023-09-30T05:07:41;7.00;;;4.10;;
76807;SDS011;65758;45.458;11.062;2023-09-30T05:10:08;8.70;;;4.00;;
76807;SDS011;65758;45.458;11.062;2023-09-30T05:12:39;6.60;;;4.40;;
76807;SDS011;65758;45.458;11.062;2023-09-30T05:15:16;6.40;;;4.10;;
76807;SDS011;65758;45.458;11.062;2023-09-30T05:17:46;7.90;;;4.60;;
76807;SDS011;65758;45.458;11.062;2023-09-30T05:20:14;7.60;;;5.20;;
76807;SDS011;65758;45.458;11.062;2023-09-30T05:22:46;6.50;;;4.80;;
76807;SDS011;65758;45.458;11.062;2023-09-30T05:25:14;6.30;;;5.00;;
76807;SDS011;65758;45.458;11.062;2023-09-30T05:27:44;5.90;;;4.90;;
76807;SDS011;65758;45.458;11.062;2023-09-30T05:30:11;7.20;;;4.50;;
76807;SDS011;65758;45.458;11.062;2023-09-30T05:32:38;5.70;;;4.50;;
76807;SDS011;65758;45.458;11.062;2023-09-30T05:35:06;5.70;;;4.70;;
76807;SDS011;65758;45.458;11.062;2023-09-30T05:37:40;5.70;;;5.10;;
76807;SDS011;65758;45.458;11.062;2023-09-30T05:40:12;10.50;;;4.90;;
76807;SDS011;65758;45.458;11.062;2023-09-30T05:42:57;7.60;;;5.10;;
76807;SDS011;65758;45.458;11.062;2023-09-30T05:45:26;10.10;;;5.50;;
76807;SDS011;65758;45.458;11.062;2023-09-30T05:47:54;8.10;;;5.60;;
76807;SDS011;65758;45.458;11.062;2023-09-30T05:50:24;11.50;;;6.10;;
76807;SDS011;65758;45.458;11.062;2023-09-30T05:52:52;14.20;;;5.60;;
76807;SDS011;65758;45.458;11.062;2023-09-30T05:55:20;11.50;;;6.40;;
76807;SDS011;65758;45.458;11.062;2023-09-30T05:57:50;8.70;;;5.60;;
76807;SDS011;65758;45.458;11.062;2023-09-30T06:00:19;6.90;;;5.90;;
76807;SDS011;65758;45.458;11.062;2023-09-30T06:02:58;11.60;;;6.40;;
76807;SDS011;65758;45.458;11.062;2023-09-30T06:05:26;8.60;;;6.20;;
76807;SDS011;65758;45.458;11.062;2023-09-30T06:07:54;9.40;;;6.50;;
76807;SDS011;65758;45.458;11.062;2023-09-30T06:10:21;10.10;;;6.00;;
76807;SDS011;65758;45.458;11.062;2023-09-30T06:12:50;10.30;;;6.60;;
76807;SDS011;65758;45.458;11.062;2023-09-30T06:15:25;11.50;;;6.30;;
76807;SDS011;65758;45.458;11.062;2023-09-30T06:17:56;9.30;;;6.20;;
76807;SDS011;65758;45.458;11.062;2023-09-30T06:20:23;9.70;;;6.10;;
76807;SDS011;65758;45.458;11.062;2023-09-30T06:22:54;8.40;;;5.90;;
76807;SDS011;65758;45.458;11.062;2023-09-30T06:25:21;9.20;;;7.10;;
76807;SDS011;65758;45.458;11.062;2023-09-30T06:27:51;11.20;;;7.50;;
76807;SDS011;65758;45.458;11.062;2023-09-30T06:30:18;11.50;;;7.50;;
76807;SDS011;65758;45.458;11.062;2023-09-30T06:32:47;9.90;;;7.30;;
76807;SDS011;65758;45.458;11.062;2023-09-30T06:35:14;8.40;;;7.20;;
76807;SDS011;65758;45.458;11.062;2023-09-30T06:37:41;9.10;;;7.00;;
76807;SDS011;65758;45.458;11.062;2023-09-30T06:40:09;11.00;;;8.60;;
76807;SDS011;65758;45.458;11.062;2023-09-30T06:42:39;12.80;;;7.90;;
76807;SDS011;65758;45.458;11.062;2023-09-30T06:45:07;11.30;;;8.20;;
76807;SDS011;65758;45.458;11.062;2023-09-30T06:47:35;11.30;;;8.50;;
76807;SDS011;65758;45.458;11.062;2023-09-30T06:50:04;15.50;;;8.40;;
76807;SDS011;65758;45.458;11.062;2023-09-30T06:52:36;12.00;;;7.80;;
76807;SDS011;65758;45.458;11.062;2023-09-30T06:55:05;12.80;;;8.00;;
76807;SDS011;65758;45.458;11.062;2023-09-30T06:57:36;15.50;;;8.90;;
76807;SDS011;65758;45.458;11.062;2023-09-30T07:00:08;11.70;;;7.80;;
76807;SDS011;65758;45.458;11.062;2023-09-30T07:02:40;11.60;;;7.70;;
76807;SDS011;65758;45.458;11.062;2023-09-30T07:05:09;13.50;;;8.20;;
76807;SDS011;65758;45.458;11.062;2023-09-30T07:07:41;12.90;;;8.90;;
76807;SDS011;65758;45.458;11.062;2023-09-30T07:12:39;9.90;;;6.80;;
76807;SDS011;65758;45.458;11.062;2023-09-30T07:15:07;12.40;;;8.00;;
76807;SDS011;65758;45.458;11.062;2023-09-30T07:17:35;8.90;;;7.10;;
76807;SDS011;65758;45.458;11.062;2023-09-30T07:20:03;13.90;;;7.70;;
76807;SDS011;65758;45.458;11.062;2023-09-30T07:22:35;14.20;;;7.50;;
76807;SDS011;65758;45.458;11.062;2023-09-30T07:25:21;12.30;;;7.60;;
76807;SDS011;65758;45.458;11.062;2023-09-30T07:27:48;7.50;;;6.60;;
76807;SDS011;65758;45.458;11.062;2023-09-30T07:30:16;10.70;;;7.00;;
76807;SDS011;65758;45.458;11.062;2023-09-30T07:32:45;11.10;;;7.40;;
76807;SDS011;65758;45.458;11.062;2023-09-30T07:35:12;12.10;;;7.40;;
76807;SDS011;65758;45.458;11.062;2023-09-30T07:37:42;10.90;;;6.30;;
76807;SDS011;65758;45.458;11.062;2023-09-30T07:40:10;8.00;;;5.90;;
76807;SDS011;65758;45.458;11.062;2023-09-30T07:42:38;12.90;;;6.40;;
76807;SDS011;65758;45.458;11.062;2023-09-30T07:45:06;12.90;;;6.50;;
76807;SDS011;65758;45.458;11.062;2023-09-30T07:47:34;10.70;;;7.00;;
76807;SDS011;65758;45.458;11.062;2023-09-30T07:50:01;9.80;;;6.80;;
76807;SDS011;65758;45.458;11.062;2023-09-30T07:52:33;13.40;;;7.70;;
76807;SDS011;65758;45.458;11.062;2023-09-30T07:54:59;27.20;;;10.30;;
76807;SDS011;65758;45.458;11.062;2023-09-30T07:57:27;13.70;;;7.70;;
76807;SDS011;65758;45.458;11.062;2023-09-30T07:59:54;12.70;;;8.00;;
76807;SDS011;65758;45.458;11.062;2023-09-30T08:02:22;13.60;;;7.70;;
76807;SDS011;65758;45.458;11.062;2023-09-30T08:04:51;13.10;;;7.00;;
76807;SDS011;65758;45.458;11.062;2023-09-30T08:07:18;11.60;;;6.20;;
76807;SDS011;65758;45.458;11.062;2023-09-30T08:09:47;11.20;;;6.80;;
76807;SDS011;65758;45.458;11.062;2023-09-30T08:12:14;10.00;;;6.30;;
76807;SDS011;65758;45.458;11.062;2023-09-30T08:14:41;13.30;;;6.40;;
76807;SDS011;65758;45.458;11.062;2023-09-30T08:17:11;17.50;;;6.90;;
76807;SDS011;65758;45.458;11.062;2023-09-30T08:19:38;14.10;;;7.10;;
76807;SDS011;65758;45.458;11.062;2023-09-30T08:22:05;19.80;;;9.40;;
76807;SDS011;65758;45.458;11.062;2023-09-30T08:24:33;13.40;;;7.00;;
76807;SDS011;65758;45.458;11.062;2023-09-30T08:27:00;10.60;;;6.90;;
76807;SDS011;65758;45.458;11.062;2023-09-30T08:29:27;12.80;;;6.50;;
76807;SDS011;65758;45.458;11.062;2023-09-30T08:31:54;11.00;;;6.60;;
76807;SDS011;65758;45.458;11.062;2023-09-30T08:34:22;12.10;;;6.80;;
76807;SDS011;65758;45.458;11.062;2023-09-30T08:36:50;14.90;;;7.30;;
76807;SDS011;65758;45.458;11.062;2023-09-30T08:39:17;10.90;;;6.40;;
76807;SDS011;65758;45.458;11.062;2023-09-30T08:41:44;23.20;;;9.10;;
76807;SDS011;65758;45.458;11.062;2023-09-30T08:44:11;23.30;;;10.00;;
76807;SDS011;65758;45.458;11.062;2023-09-30T08:46:39;14.70;;;9.40;;
76807;SDS011;65758;45.458;11.062;2023-09-30T08:49:08;18.90;;;7.90;;
76807;SDS011;65758;45.458;11.062;2023-09-30T08:51:35;15.90;;;8.40;;
76807;SDS011;65758;45.458;11.062;2023-09-30T08:54:03;16.20;;;8.50;;
76807;SDS011;65758;45.458;11.062;2023-09-30T08:56:32;13.50;;;7.60;;
76807;SDS011;65758;45.458;11.062;2023-09-30T08:59:02;11.80;;;7.40;;
76807;SDS011;65758;45.458;11.062;2023-09-30T09:01:30;18.80;;;8.80;;
76807;SDS011;65758;45.458;11.062;2023-09-30T09:03:58;11.10;;;6.80;;
76807;SDS011;65758;45.458;11.062;2023-09-30T09:06:25;12.80;;;6.60;;
76807;SDS011;65758;45.458;11.062;2023-09-30T09:08:53;11.30;;;6.50;;
76807;SDS011;65758;45.458;11.062;2023-09-30T09:11:20;13.00;;;7.40;;
76807;SDS011;65758;45.458;11.062;2023-09-30T09:13:48;12.70;;;6.60;;
76807;SDS011;65758;45.458;11.062;2023-09-30T09:16:17;12.70;;;6.70;;
76807;SDS011;65758;45.458;11.062;2023-09-30T09:18:45;10.90;;;6.80;;
76807;SDS011;65758;45.458;11.062;2023-09-30T09:21:17;11.60;;;6.60;;
76807;SDS011;65758;45.458;11.062;2023-09-30T09:29:00;9.60;;;6.90;;
76807;SDS011;65758;45.458;11.062;2023-09-30T09:31:31;9.60;;;6.60;;
76807;SDS011;65758;45.458;11.062;2023-09-30T09:34:03;10.70;;;6.70;;
76807;SDS011;65758;45.458;11.062;2023-09-30T09:36:40;13.80;;;7.10;;
76807;SDS011;65758;45.458;11.062;2023-09-30T09:39:10;12.70;;;7.10;;
76807;SDS011;65758;45.458;11.062;2023-09-30T09:41:48;7.90;;;6.50;;
76807;SDS011;65758;45.458;11.062;2023-09-30T09:44:21;10.40;;;7.30;;
76807;SDS011;65758;45.458;11.062;2023-09-30T09:46:49;10.60;;;6.60;;
76807;SDS011;65758;45.458;11.062;2023-09-30T09:49:17;12.10;;;6.90;;
76807;SDS011;65758;45.458;11.062;2023-09-30T09:51:46;10.50;;;7.00;;
76807;SDS011;65758;45.458;11.062;2023-09-30T09:54:15;11.10;;;7.30;;
76807;SDS011;65758;45.458;11.062;2023-09-30T09:56:45;12.10;;;7.20;;
76807;SDS011;65758;45.458;11.062;2023-09-30T09:59:12;10.30;;;7.10;;
76807;SDS011;65758;45.458;11.062;2023-09-30T10:01:41;11.20;;;7.70;;
76807;SDS011;65758;45.458;11.062;2023-09-30T10:04:12;13.00;;;7.70;;
76807;SDS011;65758;45.458;11.062;2023-09-30T10:06:42;12.80;;;8.60;;
76807;SDS011;65758;45.458;11.062;2023-09-30T10:09:15;13.20;;;8.40;;
76807;SDS011;65758;45.458;11.062;2023-09-30T10:11:44;12.50;;;8.70;;
76807;SDS011;65758;45.458;11.062;2023-09-30T10:14:29;13.20;;;9.20;;
76807;SDS011;65758;45.458;11.062;2023-09-30T10:16:59;12.20;;;8.70;;
76807;SDS011;65758;45.458;11.062;2023-09-30T10:19:26;12.30;;;7.40;;
76807;SDS011;65758;45.458;11.062;2023-09-30T10:24:44;12.50;;;7.60;;
76807;SDS011;65758;45.458;11.062;2023-09-30T10:29:59;14.70;;;9.50;;
76807;SDS011;65758;45.458;11.062;2023-09-30T10:35:17;15.00;;;9.10;;
76807;SDS011;65758;45.458;11.062;2023-09-30T10:40:57;14.80;;;9.20;;
76807;SDS011;65758;45.458;11.062;2023-09-30T10:43:34;17.80;;;9.80;;
76807;SDS011;65758;45.458;11.062;2023-09-30T10:48:34;20.00;;;9.30;;
76807;SDS011;65758;45.458;11.062;2023-09-30T10:53:41;17.40;;;10.20;;
76807;SDS011;65758;45.458;11.062;2023-09-30T10:56:10;16.40;;;9.30;;
76807;SDS011;65758;45.458;11.062;2023-09-30T10:58:41;12.50;;;8.10;;
76807;SDS011;65758;45.458;11.062;2023-09-30T11:01:19;10.50;;;7.70;;
76807;SDS011;65758;45.458;11.062;2023-09-30T11:03:48;12.00;;;9.00;;
76807;SDS011;65758;45.458;11.062;2023-09-30T11:06:19;14.10;;;8.40;;
76807;SDS011;65758;45.458;11.062;2023-09-30T11:08:58;13.30;;;7.90;;
76807;SDS011;65758;45.458;11.062;2023-09-30T11:11:46;11.70;;;7.70;;
76807;SDS011;65758;45.458;11.062;2023-09-30T11:16:56;11.50;;;7.60;;
76807;SDS011;65758;45.458;11.062;2023-09-30T11:19:35;14.50;;;8.00;;
76807;SDS011;65758;45.458;11.062;2023-09-30T11:22:04;12.10;;;7.70;;
76807;SDS011;65758;45.458;11.062;2023-09-30T11:24:35;12.70;;;7.60;;
76807;SDS011;65758;45.458;11.062;2023-09-30T11:27:03;13.90;;;8.10;;
76807;SDS011;65758;45.458;11.062;2023-09-30T11:29:31;12.10;;;7.30;;
76807;SDS011;65758;45.458;11.062;2023-09-30T11:31:58;13.10;;;7.40;;
76807;SDS011;65758;45.458;11.062;2023-09-30T11:34:31;9.40;;;6.10;;
76807;SDS011;65758;45.458;11.062;2023-09-30T11:37:00;10.50;;;7.20;;
76807;SDS011;65758;45.458;11.062;2023-09-30T11:39:28;9.90;;;6.00;;
76807;SDS011;65758;45.458;11.062;2023-09-30T11:41:57;9.30;;;6.00;;
76807;SDS011;65758;45.458;11.062;2023-09-30T11:44:24;9.10;;;5.60;;
76807;SDS011;65758;45.458;11.062;2023-09-30T11:46:58;8.00;;;6.00;;
76807;SDS011;65758;45.458;11.062;2023-09-30T11:52:08;7.90;;;6.00;;
76807;SDS011;65758;45.458;11.062;2023-09-30T11:54:38;7.70;;;6.00;;
76807;SDS011;65758;45.458;11.062;2023-09-30T11:57:16;8.50;;;6.00;;
76807;SDS011;65758;45.458;11.062;2023-09-30T11:59:45;9.10;;;5.70;;
76807;SDS011;65758;45.458;11.062;2023-09-30T12:02:13;8.10;;;5.70;;
76807;SDS011;65758;45.458;11.062;2023-09-30T12:04:42;7.20;;;5.40;;
76807;SDS011;65758;45.458;11.062;2023-09-30T12:07:11;8.10;;;5.80;;
76807;SDS011;65758;45.458;11.062;2023-09-30T12:09:38;9.40;;;6.30;;
76807;SDS011;65758;45.458;11.062;2023-09-30T12:12:07;11.00;;;6.40;;
76807;SDS011;65758;45.458;11.062;2023-09-30T12:14:38;11.50;;;7.00;;
76807;SDS011;65758;45.458;11.062;2023-09-30T12:17:06;9.60;;;6.60;;
76807;SDS011;65758;45.458;11.062;2023-09-30T12:19:39;12.10;;;6.80;;
76807;SDS011;65758;45.458;11.062;2023-09-30T12:22:09;8.50;;;6.20;;
76807;SDS011;65758;45.458;11.062;2023-09-30T12:24:37;10.50;;;6.80;;
76807;SDS011;65758;45.458;11.062;2023-09-30T12:27:04;8.80;;;5.80;;
76807;SDS011;65758;45.458;11.062;2023-09-30T12:29:31;10.90;;;6.30;;
76807;SDS011;65758;45.458;11.062;2023-09-30T12:31:58;11.20;;;6.10;;
76807;SDS011;65758;45.458;11.062;2023-09-30T12:34:28;14.00;;;7.10;;
76807;SDS011;65758;45.458;11.062;2023-09-30T12:36:54;10.50;;;7.20;;
76807;SDS011;65758;45.458;11.062;2023-09-30T12:39:24;9.30;;;7.00;;
76807;SDS011;65758;45.458;11.062;2023-09-30T12:41:54;13.20;;;7.20;;
76807;SDS011;65758;45.458;11.062;2023-09-30T12:44:21;9.00;;;6.60;;
76807;SDS011;65758;45.458;11.062;2023-09-30T12:46:50;10.90;;;6.70;;
76807;SDS011;65758;45.458;11.062;2023-09-30T12:49:17;12.00;;;6.30;;
76807;SDS011;65758;45.458;11.062;2023-09-30T12:51:45;11.60;;;6.80;;
76807;SDS011;65758;45.458;11.062;2023-09-30T12:54:12;11.20;;;6.60;;
76807;SDS011;65758;45.458;11.062;2023-09-30T12:56:41;7.60;;;5.60;;
76807;SDS011;65758;45.458;11.062;2023-09-30T12:59:08;10.30;;;5.90;;
76807;SDS011;65758;45.458;11.062;2023-09-30T13:01:35;9.10;;;5.70;;
76807;SDS011;65758;45.458;11.062;2023-09-30T13:04:02;8.80;;;5.80;;
76807;SDS011;65758;45.458;11.062;2023-09-30T13:06:29;8.70;;;5.50;;
76807;SDS011;65758;45.458;11.062;2023-09-30T13:08:59;8.30;;;5.70;;
76807;SDS011;65758;45.458;11.062;2023-09-30T13:11:27;7.90;;;5.70;;
76807;SDS011;65758;45.458;11.062;2023-09-30T13:13:54;6.50;;;5.30;;
76807;SDS011;65758;45.458;11.062;2023-09-30T13:16:21;8.10;;;5.50;;
76807;SDS011;65758;45.458;11.062;2023-09-30T13:18:49;6.80;;;5.20;;
76807;SDS011;65758;45.458;11.062;2023-09-30T13:21:20;10.80;;;5.10;;
76807;SDS011;65758;45.458;11.062;2023-09-30T13:23:47;6.00;;;4.20;;
76807;SDS011;65758;45.458;11.062;2023-09-30T13:26:13;7.60;;;4.50;;
76807;SDS011;65758;45.458;11.062;2023-09-30T13:28:40;9.80;;;4.90;;
76807;SDS011;65758;45.458;11.062;2023-09-30T13:31:07;7.10;;;4.60;;
76807;SDS011;65758;45.458;11.062;2023-09-30T13:33:34;7.80;;;5.00;;
76807;SDS011;65758;45.458;11.062;2023-09-30T13:36:01;9.70;;;4.80;;
76807;SDS011;65758;45.458;11.062;2023-09-30T13:38:29;6.40;;;4.50;;
76807;SDS011;65758;45.458;11.062;2023-09-30T13:40:56;6.30;;;4.60;;
76807;SDS011;65758;45.458;11.062;2023-09-30T13:43:24;7.60;;;4.90;;
76807;SDS011;65758;45.458;11.062;2023-09-30T13:45:51;6.60;;;5.10;;
76807;SDS011;65758;45.458;11.062;2023-09-30T13:48:18;6.40;;;5.10;;
76807;SDS011;65758;45.458;11.062;2023-09-30T13:50:45;7.00;;;4.80;;
76807;SDS011;65758;45.458;11.062;2023-09-30T13:53:12;8.20;;;4.50;;
76807;SDS011;65758;45.458;11.062;2023-09-30T13:55:39;7.10;;;4.50;;
76807;SDS011;65758;45.458;11.062;2023-09-30T13:58:06;6.50;;;4.80;;
76807;SDS011;65758;45.458;11.062;2023-09-30T14:00:33;16.70;;;12.20;;
76807;SDS011;65758;45.458;11.062;2023-09-30T14:03:00;8.00;;;5.60;;
76807;SDS011;65758;45.458;11.062;2023-09-30T14:05:27;6.90;;;5.40;;
76807;SDS011;65758;45.458;11.062;2023-09-30T14:07:54;6.70;;;4.60;;
76807;SDS011;65758;45.458;11.062;2023-09-30T14:10:21;7.20;;;4.80;;
76807;SDS011;65758;45.458;11.062;2023-09-30T14:12:48;6.90;;;4.70;;
76807;SDS011;65758;45.458;11.062;2023-09-30T14:15:15;7.20;;;4.40;;
76807;SDS011;65758;45.458;11.062;2023-09-30T14:17:42;6.80;;;4.40;;
76807;SDS011;65758;45.458;11.062;2023-09-30T14:20:11;5.20;;;4.50;;
76807;SDS011;65758;45.458;11.062;2023-09-30T14:22:39;5.20;;;4.30;;
76807;SDS011;65758;45.458;11.062;2023-09-30T14:25:06;7.60;;;4.80;;
76807;SDS011;65758;45.458;11.062;2023-09-30T14:27:34;8.10;;;4.70;;
76807;SDS011;65758;45.458;11.062;2023-09-30T14:30:01;5.50;;;4.20;;
76807;SDS011;65758;45.458;11.062;2023-09-30T14:32:28;8.20;;;4.70;;
76807;SDS011;65758;45.458;11.062;2023-09-30T14:34:55;5.80;;;4.50;;
76807;SDS011;65758;45.458;11.062;2023-09-30T14:37:23;11.80;;;5.30;;
76807;SDS011;65758;45.458;11.062;2023-09-30T14:39:50;5.90;;;4.40;;
76807;SDS011;65758;45.458;11.062;2023-09-30T14:42:17;6.80;;;4.60;;
76807;SDS011;65758;45.458;11.062;2023-09-30T14:44:44;6.40;;;4.50;;
76807;SDS011;65758;45.458;11.062;2023-09-30T14:47:11;7.00;;;4.40;;
76807;SDS011;65758;45.458;11.062;2023-09-30T14:49:37;6.20;;;4.20;;
76807;SDS011;65758;45.458;11.062;2023-09-30T14:52:05;5.60;;;4.70;;
76807;SDS011;65758;45.458;11.062;2023-09-30T14:54:32;7.50;;;4.80;;
76807;SDS011;65758;45.458;11.062;2023-09-30T14:56:59;6.90;;;4.60;;
76807;SDS011;65758;45.458;11.062;2023-09-30T14:59:26;11.40;;;4.40;;
76807;SDS011;65758;45.458;11.062;2023-09-30T15:01:53;8.50;;;4.80;;
76807;SDS011;65758;45.458;11.062;2023-09-30T15:04:20;7.00;;;4.50;;
76807;SDS011;65758;45.458;11.062;2023-09-30T15:06:47;6.70;;;4.60;;